createdAt,value
2018-07-17T00:02:20.713Z,52.06
2018-07-17T00:04:48.684Z,52.86
2018-07-17T00:07:16.808Z,53.09
2018-07-17T00:09:45.426Z,52.27
2018-07-17T00:12:13.090Z,53.01
2018-07-17T00:14:40.862Z,53.04
2018-07-17T00:17:09.103Z,52.99
2018-07-17T00:19:37.193Z,53.04
2018-07-17T00:22:05.110Z,53.70
2018-07-17T00:24:32.775Z,53.93
2018-07-17T00:27:00.859Z,53.24
2018-07-17T00:29:29.082Z,53.25
2018-07-17T00:31:57.084Z,53.19
2018-07-17T00:34:25.285Z,53.28
2018-07-17T00:36:52.928Z,53.90
2018-07-17T00:39:21.219Z,53.79
2018-07-17T00:41:49.178Z,53.28
2018-07-17T00:44:16.846Z,53.26
2018-07-17T00:46:45.150Z,53.22
2018-07-17T00:49:13.094Z,53.04
2018-07-17T00:51:41.088Z,53.62
2018-07-17T00:54:09.293Z,53.74
2018-07-17T00:56:36.968Z,53.03
2018-07-17T00:59:04.848Z,52.92
2018-07-17T01:01:38.498Z,52.88
2018-07-17T01:04:11.820Z,53.75
2018-07-17T01:06:45.103Z,53.69
2018-07-17T01:09:18.214Z,53.16
2018-07-17T01:11:51.400Z,53.79
2018-07-17T01:14:39.208Z,53.91
2018-07-17T01:17:07.254Z,53.45
2018-07-17T01:19:34.988Z,53.56
2018-07-17T01:22:03.102Z,53.05
2018-07-17T01:24:30.815Z,53.83
2018-07-17T01:26:58.813Z,53.23
2018-07-17T01:29:26.569Z,53.08
2018-07-17T01:31:54.466Z,53.32
2018-07-17T01:34:22.409Z,53.96
2018-07-17T01:36:50.339Z,53.07
2018-07-17T01:39:17.996Z,52.92
2018-07-17T01:41:46.177Z,53.11
2018-07-17T01:44:15.919Z,53.54
2018-07-17T01:46:45.107Z,53.82
2018-07-17T01:49:12.982Z,53.22
2018-07-17T01:51:40.670Z,52.98
2018-07-17T01:54:08.739Z,54.00
2018-07-17T01:56:36.764Z,53.79
2018-07-17T01:59:04.797Z,53.39
2018-07-17T02:01:32.802Z,53.83
2018-07-17T02:04:00.535Z,53.34
2018-07-17T02:06:28.260Z,53.70
2018-07-17T02:08:56.250Z,53.36
2018-07-17T02:11:24.244Z,53.00
2018-07-17T02:13:52.617Z,52.88
2018-07-17T02:16:20.365Z,52.93
2018-07-17T02:18:48.728Z,53.31
2018-07-17T02:21:16.466Z,52.78
2018-07-17T02:23:44.325Z,52.87
2018-07-17T02:26:12.281Z,52.79
2018-07-17T02:28:40.334Z,53.64
2018-07-17T02:31:08.463Z,52.90
2018-07-17T02:33:36.426Z,53.70
2018-07-17T02:36:04.740Z,52.59
2018-07-17T02:38:32.394Z,53.56
2018-07-17T02:41:00.278Z,52.91
2018-07-17T02:43:27.996Z,53.10
2018-07-17T02:45:55.698Z,53.73
2018-07-17T02:48:23.419Z,53.54
2018-07-17T02:50:51.125Z,54.16
2018-07-17T02:53:19.129Z,53.48
2018-07-17T02:55:46.758Z,53.50
2018-07-17T02:58:14.799Z,53.51
2018-07-17T03:00:42.770Z,54.33
2018-07-17T03:03:10.700Z,54.23
2018-07-17T03:05:38.345Z,54.02
2018-07-17T03:08:06.871Z,53.69
2018-07-17T03:10:34.531Z,53.39
2018-07-17T03:13:02.163Z,54.43
2018-07-17T03:15:30.177Z,54.29
2018-07-17T03:17:58.417Z,53.59
2018-07-17T03:20:26.440Z,54.66
2018-07-17T03:22:54.766Z,54.03
2018-07-17T03:25:22.876Z,53.64
2018-07-17T03:27:50.576Z,53.90
2018-07-17T03:30:18.263Z,53.69
2018-07-17T03:32:46.452Z,54.28
2018-07-17T03:35:14.558Z,54.10
2018-07-17T03:37:42.294Z,53.59
2018-07-17T03:40:10.455Z,54.05
2018-07-17T03:42:38.430Z,53.89
2018-07-17T03:45:06.142Z,54.35
2018-07-17T03:47:34.167Z,53.69
2018-07-17T03:50:02.161Z,53.11
2018-07-17T03:52:30.495Z,54.43
2018-07-17T03:54:58.181Z,53.90
2018-07-17T03:57:26.268Z,53.76
2018-07-17T03:59:53.998Z,54.75
2018-07-17T04:02:22.100Z,54.46
2018-07-17T04:04:49.802Z,54.58
2018-07-17T04:07:18.109Z,53.81
2018-07-17T04:09:45.817Z,53.67
2018-07-17T04:12:13.578Z,53.50
2018-07-17T04:14:41.323Z,53.35
2018-07-17T04:17:09.374Z,53.82
2018-07-17T04:19:37.306Z,53.69
2018-07-17T04:22:05.034Z,53.08
2018-07-17T04:24:32.984Z,53.57
2018-07-17T04:27:01.004Z,53.17
2018-07-17T04:29:28.912Z,53.05
2018-07-17T04:31:57.456Z,53.53
2018-07-17T04:34:25.117Z,53.46
2018-07-17T04:36:52.971Z,53.58
2018-07-17T04:39:21.657Z,52.51
2018-07-17T04:41:49.707Z,52.19
2018-07-17T04:44:17.459Z,53.12
2018-07-17T04:46:45.237Z,52.75
2018-07-17T04:49:12.890Z,52.50
2018-07-17T04:51:40.534Z,53.27
2018-07-17T04:54:08.202Z,52.51
2018-07-17T04:56:35.822Z,52.16
2018-07-17T04:59:03.884Z,54.22
2018-07-17T05:01:31.557Z,54.56
2018-07-17T05:03:59.498Z,53.50
2018-07-17T05:06:27.315Z,54.29
2018-07-17T05:08:55.363Z,54.86
2018-07-17T05:11:23.558Z,54.39
2018-07-17T05:13:51.278Z,53.72
2018-07-17T05:16:19.014Z,53.43
2018-07-17T05:18:47.465Z,53.60
2018-07-17T05:21:15.197Z,53.47
2018-07-17T05:23:42.931Z,52.95
2018-07-17T05:26:11.067Z,53.00
2018-07-17T05:28:39.355Z,53.60
2018-07-17T05:31:07.934Z,52.90
2018-07-17T05:33:35.921Z,52.65
2018-07-17T05:36:03.674Z,52.62
2018-07-17T05:38:31.630Z,52.77
2018-07-17T05:40:59.738Z,52.78
2018-07-17T05:43:27.392Z,52.21
2018-07-17T05:45:55.024Z,52.92
2018-07-17T05:48:22.739Z,52.41
2018-07-17T05:50:50.699Z,52.31
2018-07-17T05:53:18.407Z,52.10
2018-07-17T05:55:46.073Z,52.69
2018-07-17T05:58:13.726Z,52.14
2018-07-17T06:00:41.414Z,52.94
2018-07-17T06:03:09.316Z,51.74
2018-07-17T06:05:37.007Z,52.73
2018-07-17T06:08:04.649Z,52.15
2018-07-17T06:10:32.657Z,52.43
2018-07-17T06:13:00.356Z,53.02
2018-07-17T06:15:28.039Z,53.34
2018-07-17T06:17:55.705Z,52.69
2018-07-17T06:20:24.087Z,52.69
2018-07-17T06:22:52.109Z,52.32
2018-07-17T06:25:19.962Z,52.24
2018-07-17T06:27:47.978Z,53.29
2018-07-17T06:30:15.689Z,52.49
2018-07-17T06:32:43.580Z,52.44
2018-07-17T06:35:11.332Z,52.52
2018-07-17T06:37:39.250Z,52.73
2018-07-17T06:40:06.930Z,52.37
2018-07-17T06:42:34.541Z,51.73
2018-07-17T06:45:02.263Z,51.43
2018-07-17T06:47:30.225Z,52.00
2018-07-17T06:49:57.942Z,52.23
2018-07-17T06:52:25.632Z,52.57
2018-07-17T06:54:53.302Z,52.06
2018-07-17T06:57:21.007Z,51.68
2018-07-17T06:59:48.705Z,51.65
2018-07-17T07:02:16.332Z,51.36
2018-07-17T07:04:44.077Z,52.33
2018-07-17T07:07:12.171Z,51.95
2018-07-17T07:09:40.122Z,51.75
2018-07-17T07:12:09.492Z,51.93
2018-07-17T07:14:37.650Z,51.20
2018-07-17T07:17:05.353Z,51.41
2018-07-17T07:19:33.146Z,51.64
2018-07-17T07:22:01.101Z,51.08
2018-07-17T07:24:29.032Z,51.99
2018-07-17T07:26:56.967Z,50.52
2018-07-17T07:29:24.653Z,51.53
2018-07-17T07:31:52.524Z,50.63
2018-07-17T07:34:20.622Z,50.78
2018-07-17T07:36:48.282Z,50.92
2018-07-17T07:39:16.362Z,50.98
2018-07-17T07:41:44.442Z,50.27
2018-07-17T07:44:12.119Z,51.06
2018-07-17T07:46:39.827Z,50.38
2018-07-17T07:49:07.524Z,51.10
2018-07-17T07:51:35.601Z,50.91
2018-07-17T07:54:03.634Z,50.63
2018-07-17T07:56:31.301Z,50.46
2018-07-17T07:58:58.990Z,51.01
2018-07-17T08:01:26.746Z,50.75
2018-07-17T08:03:54.655Z,50.55
2018-07-17T08:06:22.298Z,50.74
2018-07-17T08:08:50.280Z,50.98
2018-07-17T08:11:18.098Z,49.66
2018-07-17T08:13:46.325Z,49.99
2018-07-17T08:16:13.967Z,50.66
2018-07-17T08:18:41.661Z,50.22
2018-07-17T08:21:09.761Z,50.30
2018-07-17T08:23:37.498Z,50.10
2018-07-17T08:26:05.135Z,49.77
2018-07-17T08:28:32.898Z,49.71
2018-07-17T08:31:00.907Z,50.11
2018-07-17T08:33:28.600Z,49.81
2018-07-17T08:35:56.866Z,49.99
2018-07-17T08:38:25.161Z,49.42
2018-07-17T08:40:53.107Z,50.28
2018-07-17T08:43:20.946Z,49.73
2018-07-17T08:45:48.518Z,50.16
2018-07-17T08:48:16.157Z,49.62
2018-07-17T08:50:44.778Z,49.95
2018-07-17T08:53:12.946Z,49.61
2018-07-17T08:55:40.557Z,49.40
2018-07-17T08:58:08.214Z,49.74
2018-07-17T09:00:35.936Z,50.07
2018-07-17T09:03:03.588Z,49.58
2018-07-17T09:05:31.284Z,49.04
2018-07-17T09:07:59.388Z,49.60
2018-07-17T09:10:27.044Z,49.03
2018-07-17T09:12:55.056Z,49.00
2018-07-17T09:15:22.724Z,49.10
2018-07-17T09:17:50.923Z,48.93
2018-07-17T09:20:18.578Z,49.80
2018-07-17T09:22:46.482Z,48.83
2018-07-17T09:25:14.399Z,49.69
2018-07-17T09:27:42.048Z,48.80
2018-07-17T09:30:09.689Z,48.77
2018-07-17T09:32:37.991Z,49.24
2018-07-17T09:35:05.884Z,49.08
2018-07-17T09:37:33.549Z,48.51
2018-07-17T09:40:01.250Z,48.73
2018-07-17T09:42:28.870Z,48.92
2018-07-17T09:44:56.816Z,49.71
2018-07-17T09:47:25.122Z,49.58
2018-07-17T09:49:52.802Z,48.63
2018-07-17T09:52:20.515Z,48.15
2018-07-17T09:54:48.205Z,48.75
2018-07-17T09:57:15.894Z,48.96
2018-07-17T09:59:44.310Z,48.80
2018-07-17T10:02:17.857Z,47.95
2018-07-17T10:04:45.813Z,47.92
2018-07-17T10:07:13.799Z,47.78
2018-07-17T10:09:41.533Z,48.23
2018-07-17T10:12:09.365Z,47.93
2018-07-17T10:14:37.135Z,47.20
2018-07-17T10:17:05.226Z,47.43
2018-07-17T10:19:32.901Z,48.21
2018-07-17T10:22:00.592Z,47.46
2018-07-17T10:24:28.618Z,48.01
2018-07-17T10:26:56.304Z,48.39
2018-07-17T10:29:24.269Z,47.44
2018-07-17T10:31:52.262Z,47.91
2018-07-17T10:34:19.909Z,48.00
2018-07-17T10:36:47.872Z,47.49
2018-07-17T10:39:16.501Z,48.37
2018-07-17T10:41:44.668Z,47.55
2018-07-17T10:44:12.394Z,48.54
2018-07-17T10:46:40.122Z,48.37
2018-07-17T10:49:08.112Z,47.94
2018-07-17T10:51:35.790Z,48.23
2018-07-17T10:54:03.621Z,47.03
2018-07-17T10:56:31.382Z,47.85
2018-07-17T10:58:59.374Z,46.96
2018-07-17T11:01:27.238Z,47.27
2018-07-17T11:03:54.972Z,46.04
2018-07-17T11:06:22.858Z,45.86
2018-07-17T11:08:50.530Z,45.40
2018-07-17T11:11:18.458Z,45.00
2018-07-17T11:13:46.106Z,45.88
2018-07-17T11:16:13.793Z,45.85
2018-07-17T11:18:41.807Z,46.19
2018-07-17T11:21:09.450Z,45.93
2018-07-17T11:23:37.134Z,45.99
2018-07-17T11:26:05.374Z,45.83
2018-07-17T11:28:33.455Z,45.74
2018-07-17T11:31:01.113Z,45.70
2018-07-17T11:33:29.000Z,45.92
2018-07-17T11:35:56.770Z,45.61
2018-07-17T11:38:24.985Z,45.39
2018-07-17T11:40:52.897Z,45.16
2018-07-17T11:43:20.846Z,46.13
2018-07-17T11:45:48.502Z,45.29
2018-07-17T11:48:16.267Z,45.64
2018-07-17T11:50:43.887Z,44.62
2018-07-17T11:53:11.596Z,44.95
2018-07-17T11:55:39.359Z,45.04
2018-07-17T11:58:07.020Z,44.23
2018-07-17T12:00:35.213Z,44.35
2018-07-17T12:03:03.117Z,44.03
2018-07-17T12:05:31.217Z,44.38
2018-07-17T12:07:58.829Z,44.05
2018-07-17T12:10:26.803Z,44.28
2018-07-17T12:12:54.531Z,44.38
2018-07-17T12:15:22.366Z,44.65
2018-07-17T12:17:50.051Z,43.87
2018-07-17T12:20:18.101Z,44.86
2018-07-17T12:22:45.693Z,44.82
2018-07-17T12:25:13.708Z,44.99
2018-07-17T12:27:41.473Z,45.08
2018-07-17T12:30:15.222Z,44.97
2018-07-17T12:32:43.470Z,45.26
2018-07-17T12:35:11.132Z,44.75
2018-07-17T12:37:38.781Z,45.14
2018-07-17T12:40:06.724Z,44.85
2018-07-17T12:42:34.473Z,45.00
2018-07-17T12:45:02.405Z,43.88
2018-07-17T12:47:30.591Z,44.50
2018-07-17T12:49:58.265Z,43.72
2018-07-17T12:52:26.330Z,44.32
2018-07-17T12:54:54.231Z,44.34
2018-07-17T12:57:21.914Z,43.63
2018-07-17T12:59:49.964Z,44.39
2018-07-17T13:02:17.762Z,43.66
2018-07-17T13:04:46.015Z,44.14
2018-07-17T13:07:14.062Z,43.15
2018-07-17T13:09:41.757Z,44.00
2018-07-17T13:12:09.477Z,43.78
2018-07-17T13:14:37.662Z,43.38
2018-07-17T13:17:05.515Z,43.63
2018-07-17T13:19:33.520Z,43.33
2018-07-17T13:22:01.279Z,43.00
2018-07-17T13:24:28.918Z,43.35
2018-07-17T13:26:56.575Z,42.78
2018-07-17T13:29:24.906Z,43.44
2018-07-17T13:31:52.851Z,43.36
2018-07-17T13:34:20.809Z,43.02
2018-07-17T13:36:49.077Z,43.35
2018-07-17T13:39:16.931Z,43.95
2018-07-17T13:41:44.658Z,43.14
2018-07-17T13:44:12.565Z,43.90
2018-07-17T13:46:40.605Z,43.47
2018-07-17T13:49:08.298Z,42.92
2018-07-17T13:51:36.168Z,43.21
2018-07-17T13:54:04.100Z,43.17
2018-07-17T13:56:31.733Z,43.18
2018-07-17T13:58:59.379Z,42.62
2018-07-17T14:01:27.386Z,43.47
2018-07-17T14:03:55.568Z,42.35
2018-07-17T14:06:23.767Z,43.30
2018-07-17T14:08:51.634Z,42.44
2018-07-17T14:11:19.964Z,43.19
2018-07-17T14:13:48.235Z,42.79
2018-07-17T14:16:16.138Z,42.58
2018-07-17T14:18:43.830Z,42.16
2018-07-17T14:21:11.745Z,42.49
2018-07-17T14:23:39.413Z,42.92
2018-07-17T14:26:07.914Z,42.35
2018-07-17T14:28:35.581Z,42.79
2018-07-17T14:31:03.716Z,41.95
2018-07-17T14:33:31.927Z,41.41
2018-07-17T14:35:59.602Z,40.81
2018-07-17T14:38:27.806Z,38.47
2018-07-17T14:40:55.758Z,35.91
2018-07-17T14:43:23.742Z,33.90
2018-07-17T14:45:51.372Z,32.71
2018-07-17T14:48:19.656Z,31.97
2018-07-17T14:50:47.514Z,31.46
2018-07-17T14:53:15.599Z,31.12
2018-07-17T14:55:43.397Z,31.13
2018-07-17T14:58:11.064Z,30.83
2018-07-17T15:00:38.777Z,30.81
2018-07-17T15:03:06.822Z,30.73
2018-07-17T15:05:34.523Z,31.43
2018-07-17T15:08:02.393Z,32.88
2018-07-17T15:10:30.323Z,33.95
2018-07-17T15:12:58.014Z,35.33
2018-07-17T15:15:26.060Z,36.41
2018-07-17T15:17:53.699Z,35.92
2018-07-17T15:20:21.391Z,37.35
2018-07-17T15:22:49.101Z,36.66
2018-07-17T15:25:16.732Z,37.43
2018-07-17T15:27:44.847Z,37.34
2018-07-17T15:30:12.845Z,37.20
2018-07-17T15:32:40.777Z,37.79
2018-07-17T15:35:08.595Z,37.29
2018-07-17T15:37:36.306Z,36.48
2018-07-17T15:40:04.135Z,36.05
2018-07-17T15:42:31.851Z,36.17
2018-07-17T15:44:59.529Z,36.29
2018-07-17T15:47:27.486Z,36.01
2018-07-17T15:49:55.710Z,35.25
2018-07-17T15:52:23.792Z,35.38
2018-07-17T15:54:51.454Z,36.25
2018-07-17T15:57:19.756Z,35.04
2018-07-17T15:59:47.462Z,35.87
2018-07-17T16:02:15.362Z,35.94
2018-07-17T16:04:43.093Z,36.27
2018-07-17T16:07:10.855Z,35.58
2018-07-17T16:09:38.550Z,35.47
2018-07-17T16:12:06.209Z,35.30
2018-07-17T16:14:33.869Z,35.21
2018-07-17T16:17:01.639Z,34.90
2018-07-17T16:19:29.961Z,35.59
2018-07-17T16:21:57.790Z,35.73
2018-07-17T16:24:25.683Z,35.61
2018-07-17T16:26:53.458Z,36.94
2018-07-17T16:29:22.315Z,36.17
2018-07-17T16:31:50.083Z,35.99
2018-07-17T16:34:18.310Z,36.28
2018-07-17T16:36:46.103Z,36.51
2018-07-17T16:39:13.862Z,36.88
2018-07-17T16:41:41.877Z,37.11
2018-07-17T16:44:10.202Z,36.71
2018-07-17T16:46:38.114Z,36.72
2018-07-17T16:49:06.066Z,37.40
2018-07-17T16:51:34.370Z,36.60
2018-07-17T16:54:02.171Z,37.05
2018-07-17T16:56:30.113Z,37.66
2018-07-17T16:58:59.603Z,37.04
2018-07-17T17:01:27.514Z,36.18
2018-07-17T17:03:55.177Z,35.84
2018-07-17T17:06:22.876Z,36.43
2018-07-17T17:08:50.532Z,35.95
2018-07-17T17:11:19.055Z,35.55
2018-07-17T17:13:47.121Z,36.62
2018-07-17T17:16:14.756Z,36.65
2018-07-17T17:18:42.447Z,35.53
2018-07-17T17:21:10.412Z,35.68
2018-07-17T17:23:38.233Z,36.35
2018-07-17T17:26:05.896Z,36.36
2018-07-17T17:28:34.585Z,36.39
2018-07-17T17:31:02.664Z,36.60
2018-07-17T17:33:30.810Z,35.59
2018-07-17T17:35:58.511Z,35.73
2018-07-17T17:38:26.517Z,36.27
2018-07-17T17:40:54.202Z,35.72
2018-07-17T17:43:22.237Z,36.27
2018-07-17T17:45:50.159Z,35.37
2018-07-17T17:48:18.212Z,35.40
2018-07-17T17:50:46.228Z,35.58
2018-07-17T17:53:13.910Z,36.02
2018-07-17T17:55:42.053Z,35.61
2018-07-17T17:58:09.966Z,34.80
2018-07-17T18:00:39.248Z,34.93
2018-07-17T18:03:07.101Z,36.19
2018-07-17T18:05:34.766Z,36.58
2018-07-17T18:08:02.445Z,38.27
2018-07-17T18:10:30.127Z,39.78
2018-07-17T18:12:57.819Z,40.38
2018-07-17T18:15:25.926Z,42.42
2018-07-17T18:17:54.000Z,42.69
2018-07-17T18:20:22.032Z,42.37
2018-07-17T18:22:49.872Z,42.90
2018-07-17T18:25:17.894Z,43.13
2018-07-17T18:27:45.575Z,43.57
2018-07-17T18:30:13.229Z,43.21
2018-07-17T18:32:41.433Z,43.31
2018-07-17T18:35:09.530Z,44.43
2018-07-17T18:37:37.526Z,44.32
2018-07-17T18:40:05.465Z,44.13
2018-07-17T18:42:33.117Z,44.92
2018-07-17T18:45:00.825Z,44.68
2018-07-17T18:47:28.534Z,44.12
2018-07-17T18:50:12.310Z,44.39
2018-07-17T18:52:24.161Z,44.74
2018-07-17T18:54:52.165Z,45.55
2018-07-17T18:57:20.086Z,45.07
2018-07-17T18:59:48.210Z,45.38
2018-07-17T19:02:16.199Z,45.87
2018-07-17T19:04:44.139Z,46.11
2018-07-17T19:07:11.816Z,46.47
2018-07-17T19:09:39.870Z,45.85
2018-07-17T19:12:07.826Z,46.73
2018-07-17T19:14:35.468Z,46.59
2018-07-17T19:17:03.131Z,46.59
2018-07-17T19:19:31.065Z,46.66
2018-07-17T19:21:59.254Z,46.97
2018-07-17T19:24:27.136Z,46.80
2018-07-17T19:26:54.972Z,46.94
2018-07-17T19:29:22.654Z,47.07
2018-07-17T19:31:50.572Z,46.97
2018-07-17T19:34:18.484Z,47.03
2018-07-17T19:36:46.949Z,48.20
2018-07-17T19:39:14.607Z,47.88
2018-07-17T19:41:42.244Z,47.75
2018-07-17T19:44:10.235Z,47.95
2018-07-17T19:46:37.885Z,47.79
2018-07-17T19:49:05.902Z,48.48
2018-07-17T19:51:33.561Z,48.07
2018-07-17T19:54:01.753Z,47.61
2018-07-17T19:56:29.476Z,48.83
2018-07-17T19:59:00.254Z,48.41
2018-07-17T20:01:28.393Z,48.11
2018-07-17T20:03:56.377Z,48.29
2018-07-17T20:06:24.290Z,48.65
2018-07-17T20:08:51.915Z,48.88
2018-07-17T20:11:19.940Z,48.56
2018-07-17T20:13:47.538Z,49.24
2018-07-17T20:16:15.456Z,49.27
2018-07-17T20:18:43.713Z,48.15
2018-07-17T20:21:11.732Z,48.88
2018-07-17T20:23:39.459Z,48.82
2018-07-17T20:26:07.666Z,48.45
2018-07-17T20:28:35.667Z,49.03
2018-07-17T20:31:03.978Z,49.65
2018-07-17T20:33:31.888Z,49.24
2018-07-17T20:35:59.626Z,48.79
2018-07-17T20:38:27.947Z,49.79
2018-07-17T20:40:55.688Z,49.37
2018-07-17T20:43:23.308Z,48.92
2018-07-17T20:45:50.960Z,48.85
2018-07-17T20:48:18.966Z,50.04
2018-07-17T20:50:46.931Z,50.00
2018-07-17T20:53:14.567Z,48.88
2018-07-17T20:55:42.278Z,49.36
2018-07-17T20:58:09.943Z,50.30
2018-07-17T21:00:37.649Z,49.52
2018-07-17T21:03:05.317Z,49.95
2018-07-17T21:05:33.240Z,50.39
2018-07-17T21:08:01.149Z,50.20
2018-07-17T21:10:29.103Z,49.66
2018-07-17T21:12:56.984Z,49.93
2018-07-17T21:15:24.976Z,50.68
2018-07-17T21:17:52.874Z,50.49
2018-07-17T21:20:20.562Z,50.17
2018-07-17T21:22:48.229Z,49.92
2018-07-17T21:25:16.469Z,50.77
2018-07-17T21:27:44.131Z,50.26
2018-07-17T21:30:11.807Z,50.99
2018-07-17T21:32:40.046Z,50.28
2018-07-17T21:35:07.750Z,50.35
2018-07-17T21:37:35.853Z,50.54
2018-07-17T21:40:03.957Z,50.67
2018-07-17T21:42:31.574Z,50.08
2018-07-17T21:44:59.219Z,51.18
2018-07-17T21:47:27.235Z,51.45
2018-07-17T21:49:54.922Z,51.48
2018-07-17T21:52:22.897Z,50.63
2018-07-17T21:54:50.491Z,51.34
2018-07-17T21:57:18.482Z,51.21
2018-07-17T21:59:46.402Z,51.14
2018-07-17T22:02:14.045Z,51.44
2018-07-17T22:04:41.746Z,51.53
2018-07-17T22:07:09.430Z,52.44
2018-07-17T22:09:37.081Z,51.63
2018-07-17T22:12:04.962Z,51.80
2018-07-17T22:14:33.135Z,52.57
2018-07-17T22:17:00.786Z,51.85
2018-07-17T22:19:29.275Z,52.23
2018-07-17T22:21:57.189Z,52.37
2018-07-17T22:24:24.822Z,51.80
2018-07-17T22:26:52.550Z,52.37
2018-07-17T22:29:20.192Z,52.62
2018-07-17T22:31:47.803Z,52.94
2018-07-17T22:34:15.721Z,52.58
2018-07-17T22:36:43.762Z,53.39
2018-07-17T22:39:11.458Z,52.49
2018-07-17T22:41:39.145Z,52.27
2018-07-17T22:44:07.105Z,52.67
2018-07-17T22:46:35.021Z,52.74
2018-07-17T22:49:02.680Z,53.20
2018-07-17T22:51:30.578Z,52.90
2018-07-17T22:53:58.476Z,52.61
2018-07-17T22:56:27.013Z,52.29
2018-07-17T22:58:54.956Z,52.08
2018-07-17T23:01:22.585Z,52.16
2018-07-17T23:03:50.257Z,52.58
2018-07-17T23:06:17.916Z,52.28
2018-07-17T23:08:45.760Z,52.30
2018-07-17T23:11:13.435Z,51.65
2018-07-17T23:13:41.059Z,52.55
2018-07-17T23:16:09.306Z,52.18
2018-07-17T23:18:37.249Z,52.05
2018-07-17T23:21:05.183Z,52.43
2018-07-17T23:23:33.145Z,53.55
2018-07-17T23:26:00.781Z,52.89
2018-07-17T23:28:28.787Z,53.69
2018-07-17T23:30:56.689Z,52.61
2018-07-17T23:33:24.548Z,53.01
2018-07-17T23:35:52.188Z,53.18
2018-07-17T23:38:20.612Z,53.60
2018-07-17T23:40:48.885Z,53.03
2018-07-17T23:43:16.497Z,52.62
2018-07-17T23:45:44.271Z,53.07
2018-07-17T23:48:11.901Z,52.04
2018-07-17T23:50:39.821Z,53.07
2018-07-17T23:53:07.557Z,52.86
2018-07-17T23:55:35.458Z,52.20
2018-07-17T23:58:03.095Z,52.35
